sensor_id;sensor_type;location;lat;lon;timestamp;pressure;altitude;pressure_sealevel;temperature;humidity
39487;BME280;25173;50.430;18.926;2023-05-02T00:01:41;98166.50;;;14.91;41.52
39487;BME280;25173;50.430;18.926;2023-05-02T00:04:42;98163.56;;;14.88;41.46
39487;BME280;25173;50.430;18.926;2023-05-02T00:07:43;98166.72;;;14.81;41.62
39487;BME280;25173;50.430;18.926;2023-05-02T00:10:43;98159.06;;;14.78;41.69
39487;BME280;25173;50.430;18.926;2023-05-02T00:13:44;98160.81;;;14.74;41.77
39487;BME280;25173;50.430;18.926;2023-05-02T00:16:45;98166.28;;;14.74;41.92
39487;BME280;25173;50.430;18.926;2023-05-02T00:19:45;98158.06;;;14.74;41.82
39487;BME280;25173;50.430;18.926;2023-05-02T00:22:46;98158.66;;;14.71;42.09
39487;BME280;25173;50.430;18.926;2023-05-02T00:25:48;98153.47;;;14.69;42.33
39487;BME280;25173;50.430;18.926;2023-05-02T00:28:49;98154.56;;;14.68;42.26
39487;BME280;25173;50.430;18.926;2023-05-02T00:32:07;98150.53;;;14.66;42.30
39487;BME280;25173;50.430;18.926;2023-05-02T00:35:08;98155.50;;;14.64;42.52
39487;BME280;25173;50.430;18.926;2023-05-02T00:38:09;98148.66;;;14.61;42.52
39487;BME280;25173;50.430;18.926;2023-05-02T00:41:10;98147.84;;;14.61;42.67
39487;BME280;25173;50.430;18.926;2023-05-02T00:44:10;98145.72;;;14.58;42.55
39487;BME280;25173;50.430;18.926;2023-05-02T00:47:11;98146.31;;;14.55;42.87
39487;BME280;25173;50.430;18.926;2023-05-02T00:50:12;98140.94;;;14.50;43.02
39487;BME280;25173;50.430;18.926;2023-05-02T00:53:12;98135.84;;;14.43;43.17
39487;BME280;25173;50.430;18.926;2023-05-02T00:56:13;98136.19;;;14.36;43.53
39487;BME280;25173;50.430;18.926;2023-05-02T00:59:13;98146.72;;;14.29;43.82
39487;BME280;25173;50.430;18.926;2023-05-02T01:05:49;98140.16;;;14.12;44.46
39487;BME280;25173;50.430;18.926;2023-05-02T01:09:16;98140.00;;;14.03;44.91
39487;BME280;25173;50.430;18.926;2023-05-02T01:12:41;98145.56;;;13.98;44.68
39487;BME280;25173;50.430;18.926;2023-05-02T01:15:42;98140.75;;;13.90;44.61
39487;BME280;25173;50.430;18.926;2023-05-02T01:18:47;98145.16;;;13.86;44.78
39487;BME280;25173;50.430;18.926;2023-05-02T01:21:48;98147.91;;;13.86;44.75
39487;BME280;25173;50.430;18.926;2023-05-02T01:31:04;98135.66;;;13.83;44.95
39487;BME280;25173;50.430;18.926;2023-05-02T01:34:07;98136.47;;;13.84;45.06
39487;BME280;25173;50.430;18.926;2023-05-02T01:37:11;98139.19;;;13.84;45.20
39487;BME280;25173;50.430;18.926;2023-05-02T01:40:16;98140.84;;;13.85;45.26
39487;BME280;25173;50.430;18.926;2023-05-02T01:43:19;98133.44;;;13.85;45.22
39487;BME280;25173;50.430;18.926;2023-05-02T01:46:21;98136.97;;;13.86;45.38
39487;BME280;25173;50.430;18.926;2023-05-02T01:49:23;98129.66;;;13.81;45.54
39487;BME280;25173;50.430;18.926;2023-05-02T01:52:26;98135.94;;;13.82;45.58
39487;BME280;25173;50.430;18.926;2023-05-02T01:55:27;98127.16;;;13.85;45.77
39487;BME280;25173;50.430;18.926;2023-05-02T01:58:29;98122.94;;;13.92;45.81
39487;BME280;25173;50.430;18.926;2023-05-02T02:01:30;98129.13;;;13.98;45.87
39487;BME280;25173;50.430;18.926;2023-05-02T02:04:31;98134.75;;;14.07;45.97
39487;BME280;25173;50.430;18.926;2023-05-02T02:07:35;98118.53;;;14.10;45.88
39487;BME280;25173;50.430;18.926;2023-05-02T02:10:39;98122.22;;;14.19;46.06
39487;BME280;25173;50.430;18.926;2023-05-02T02:13:54;98123.47;;;14.27;46.09
39487;BME280;25173;50.430;18.926;2023-05-02T02:17:00;98123.91;;;14.34;45.98
39487;BME280;25173;50.430;18.926;2023-05-02T02:20:04;98121.09;;;14.39;45.87
39487;BME280;25173;50.430;18.926;2023-05-02T02:23:07;98126.00;;;14.42;45.65
39487;BME280;25173;50.430;18.926;2023-05-02T02:26:08;98125.69;;;14.44;45.76
39487;BME280;25173;50.430;18.926;2023-05-02T02:29:10;98122.63;;;14.45;45.81
39487;BME280;25173;50.430;18.926;2023-05-02T02:32:10;98127.91;;;14.42;45.78
39487;BME280;25173;50.430;18.926;2023-05-02T02:35:11;98120.00;;;14.40;45.90
39487;BME280;25173;50.430;18.926;2023-05-02T02:48:33;98127.09;;;14.41;45.83
39487;BME280;25173;50.430;18.926;2023-05-02T02:51:44;98120.28;;;14.38;46.27
39487;BME280;25173;50.430;18.926;2023-05-02T02:54:51;98127.69;;;14.38;46.20
39487;BME280;25173;50.430;18.926;2023-05-02T02:58:08;98125.25;;;14.36;46.48
39487;BME280;25173;50.430;18.926;2023-05-02T03:01:14;98127.47;;;14.34;46.32
39487;BME280;25173;50.430;18.926;2023-05-02T03:04:17;98128.56;;;14.33;46.24
39487;BME280;25173;50.430;18.926;2023-05-02T03:07:20;98125.81;;;14.33;46.24
39487;BME280;25173;50.430;18.926;2023-05-02T03:10:22;98133.22;;;14.33;46.40
39487;BME280;25173;50.430;18.926;2023-05-02T03:13:23;98129.69;;;14.32;46.40
39487;BME280;25173;50.430;18.926;2023-05-02T03:16:31;98133.75;;;14.35;46.63
39487;BME280;25173;50.430;18.926;2023-05-02T03:19:34;98132.94;;;14.34;46.52
39487;BME280;25173;50.430;18.926;2023-05-02T03:22:35;98133.75;;;14.35;46.47
39487;BME280;25173;50.430;18.926;2023-05-02T03:25:36;98142.25;;;14.33;46.56
39487;BME280;25173;50.430;18.926;2023-05-02T03:28:37;98135.97;;;14.33;46.57
39487;BME280;25173;50.430;18.926;2023-05-02T03:31:39;98136.06;;;14.28;46.60
39487;BME280;25173;50.430;18.926;2023-05-02T03:34:39;98143.47;;;14.27;46.69
39487;BME280;25173;50.430;18.926;2023-05-02T03:37:41;98137.69;;;14.29;46.72
39487;BME280;25173;50.430;18.926;2023-05-02T03:40:42;98143.16;;;14.29;46.79
39487;BME280;25173;50.430;18.926;2023-05-02T03:43:45;98136.59;;;14.30;46.76
39487;BME280;25173;50.430;18.926;2023-05-02T03:46:46;98149.16;;;14.31;46.79
39487;BME280;25173;50.430;18.926;2023-05-02T03:49:47;98149.47;;;14.29;46.87
39487;BME280;25173;50.430;18.926;2023-05-02T03:52:49;98151.06;;;14.30;46.81
39487;BME280;25173;50.430;18.926;2023-05-02T03:55:54;98146.72;;;14.29;46.94
39487;BME280;25173;50.430;18.926;2023-05-02T03:59:02;98148.84;;;14.32;46.67
39487;BME280;25173;50.430;18.926;2023-05-02T04:02:03;98149.66;;;14.33;46.94
39487;BME280;25173;50.430;18.926;2023-05-02T04:05:12;98155.38;;;14.36;47.20
39487;BME280;25173;50.430;18.926;2023-05-02T04:08:13;98146.56;;;14.40;47.25
39487;BME280;25173;50.430;18.926;2023-05-02T04:11:16;98153.91;;;14.44;47.01
39487;BME280;25173;50.430;18.926;2023-05-02T04:14:17;98160.13;;;14.50;47.04
39487;BME280;25173;50.430;18.926;2023-05-02T04:17:19;98158.63;;;14.57;47.01
39487;BME280;25173;50.430;18.926;2023-05-02T04:20:22;98159.16;;;14.59;46.97
39487;BME280;25173;50.430;18.926;2023-05-02T04:23:25;98160.44;;;14.62;46.99
39487;BME280;25173;50.430;18.926;2023-05-02T04:26:30;98166.97;;;14.66;48.06
39487;BME280;25173;50.430;18.926;2023-05-02T04:29:38;98162.31;;;14.66;46.83
39487;BME280;25173;50.430;18.926;2023-05-02T04:32:40;98170.34;;;14.76;46.91
39487;BME280;25173;50.430;18.926;2023-05-02T04:35:43;98167.63;;;14.90;46.78
39487;BME280;25173;50.430;18.926;2023-05-02T04:38:46;98173.94;;;15.04;46.78
39487;BME280;25173;50.430;18.926;2023-05-02T04:41:49;98177.84;;;15.17;46.78
39487;BME280;25173;50.430;18.926;2023-05-02T04:44:50;98167.16;;;15.29;46.86
39487;BME280;25173;50.430;18.926;2023-05-02T04:47:51;98170.19;;;15.41;46.79
39487;BME280;25173;50.430;18.926;2023-05-02T04:50:51;98164.53;;;15.51;47.14
39487;BME280;25173;50.430;18.926;2023-05-02T04:53:55;98179.72;;;15.63;47.42
39487;BME280;25173;50.430;18.926;2023-05-02T04:56:56;98169.00;;;15.75;47.22
39487;BME280;25173;50.430;18.926;2023-05-02T04:59:58;98178.63;;;15.86;46.74
39487;BME280;25173;50.430;18.926;2023-05-02T05:03:00;98173.75;;;15.97;46.24
39487;BME280;25173;50.430;18.926;2023-05-02T05:06:00;98180.94;;;16.06;45.77
39487;BME280;25173;50.430;18.926;2023-05-02T05:09:02;98172.16;;;16.18;45.55
39487;BME280;25173;50.430;18.926;2023-05-02T05:12:03;98175.28;;;16.25;45.36
39487;BME280;25173;50.430;18.926;2023-05-02T05:15:07;98178.09;;;16.34;45.46
39487;BME280;25173;50.430;18.926;2023-05-02T05:18:08;98179.06;;;16.51;45.27
39487;BME280;25173;50.430;18.926;2023-05-02T05:21:09;98185.53;;;16.69;44.88
39487;BME280;25173;50.430;18.926;2023-05-02T05:24:10;98186.44;;;16.87;44.48
39487;BME280;25173;50.430;18.926;2023-05-02T05:27:11;98191.41;;;17.07;44.26
39487;BME280;25173;50.430;18.926;2023-05-02T05:30:12;98194.25;;;17.24;44.19
39487;BME280;25173;50.430;18.926;2023-05-02T05:33:15;98193.84;;;17.39;43.71
39487;BME280;25173;50.430;18.926;2023-05-02T05:36:16;98196.19;;;17.55;43.53
39487;BME280;25173;50.430;18.926;2023-05-02T05:39:17;98209.72;;;17.73;43.45
39487;BME280;25173;50.430;18.926;2023-05-02T05:42:20;98211.22;;;17.97;43.31
39487;BME280;25173;50.430;18.926;2023-05-02T05:45:24;98208.66;;;18.17;42.99
39487;BME280;25173;50.430;18.926;2023-05-02T05:48:24;98205.13;;;18.43;42.51
39487;BME280;25173;50.430;18.926;2023-05-02T05:51:25;98211.31;;;18.66;42.16
39487;BME280;25173;50.430;18.926;2023-05-02T05:54:29;98206.28;;;18.76;41.42
39487;BME280;25173;50.430;18.926;2023-05-02T05:57:32;98202.19;;;18.82;41.19
39487;BME280;25173;50.430;18.926;2023-05-02T06:00:34;98212.28;;;18.95;40.82
39487;BME280;25173;50.430;18.926;2023-05-02T06:03:35;98212.72;;;19.06;40.73
39487;BME280;25173;50.430;18.926;2023-05-02T06:06:36;98224.56;;;19.07;40.77
39487;BME280;25173;50.430;18.926;2023-05-02T06:09:36;98226.81;;;19.22;40.66
39487;BME280;25173;50.430;18.926;2023-05-02T06:12:37;98227.59;;;19.31;40.40
39487;BME280;25173;50.430;18.926;2023-05-02T06:15:39;98226.56;;;19.44;40.50
39487;BME280;25173;50.430;18.926;2023-05-02T06:18:40;98244.47;;;19.55;40.34
39487;BME280;25173;50.430;18.926;2023-05-02T06:21:41;98247.34;;;19.59;40.63
39487;BME280;25173;50.430;18.926;2023-05-02T06:24:41;98243.63;;;19.63;40.32
39487;BME280;25173;50.430;18.926;2023-05-02T06:27:42;98244.75;;;19.62;40.15
39487;BME280;25173;50.430;18.926;2023-05-02T06:30:42;98254.97;;;19.70;40.28
39487;BME280;25173;50.430;18.926;2023-05-02T06:33:43;98249.47;;;19.62;40.18
39487;BME280;25173;50.430;18.926;2023-05-02T06:36:43;98254.00;;;19.66;40.45
39487;BME280;25173;50.430;18.926;2023-05-02T06:39:44;98257.38;;;19.72;40.63
39487;BME280;25173;50.430;18.926;2023-05-02T06:42:45;98262.59;;;19.73;40.40
39487;BME280;25173;50.430;18.926;2023-05-02T06:45:45;98264.72;;;19.68;40.47
39487;BME280;25173;50.430;18.926;2023-05-02T06:48:46;98267.03;;;19.57;40.52
39487;BME280;25173;50.430;18.926;2023-05-02T06:51:46;98267.81;;;19.66;40.72
39487;BME280;25173;50.430;18.926;2023-05-02T06:54:47;98272.31;;;19.80;40.92
39487;BME280;25173;50.430;18.926;2023-05-02T06:57:48;98266.25;;;19.86;40.93
39487;BME280;25173;50.430;18.926;2023-05-02T07:00:50;98266.19;;;20.03;40.59
39487;BME280;25173;50.430;18.926;2023-05-02T07:03:51;98268.91;;;20.12;40.75
39487;BME280;25173;50.430;18.926;2023-05-02T07:06:51;98266.41;;;20.19;40.57
39487;BME280;25173;50.430;18.926;2023-05-02T07:09:52;98278.34;;;20.11;40.35
39487;BME280;25173;50.430;18.926;2023-05-02T07:12:57;98271.38;;;20.05;40.83
39487;BME280;25173;50.430;18.926;2023-05-02T07:16:19;98281.66;;;19.96;41.11
39487;BME280;25173;50.430;18.926;2023-05-02T07:19:23;98303.09;;;20.07;40.93
39487;BME280;25173;50.430;18.926;2023-05-02T07:22:23;98283.09;;;20.02;40.75
39487;BME280;25173;50.430;18.926;2023-05-02T07:25:24;98287.31;;;20.08;40.90
39487;BME280;25173;50.430;18.926;2023-05-02T07:28:25;98282.25;;;20.10;40.83
39487;BME280;25173;50.430;18.926;2023-05-02T07:31:25;98287.91;;;20.22;40.91
39487;BME280;25173;50.430;18.926;2023-05-02T07:34:26;98286.38;;;20.33;41.28
39487;BME280;25173;50.430;18.926;2023-05-02T07:37:31;98289.81;;;20.60;41.14
39487;BME280;25173;50.430;18.926;2023-05-02T07:40:32;98297.69;;;20.70;41.04
39487;BME280;25173;50.430;18.926;2023-05-02T07:43:33;98295.41;;;20.72;41.37
39487;BME280;25173;50.430;18.926;2023-05-02T07:46:33;98314.91;;;20.75;41.14
39487;BME280;25173;50.430;18.926;2023-05-02T07:49:34;98306.41;;;20.80;41.24
39487;BME280;25173;50.430;18.926;2023-05-02T07:52:36;98310.03;;;20.93;41.00
39487;BME280;25173;50.430;18.926;2023-05-02T07:55:36;98322.69;;;21.03;41.19
39487;BME280;25173;50.430;18.926;2023-05-02T07:58:37;98321.44;;;21.12;41.47
39487;BME280;25173;50.430;18.926;2023-05-02T08:01:41;98313.91;;;21.21;41.17
39487;BME280;25173;50.430;18.926;2023-05-02T08:04:42;98317.25;;;21.27;41.08
39487;BME280;25173;50.430;18.926;2023-05-02T08:07:42;98313.00;;;21.29;41.12
39487;BME280;25173;50.430;18.926;2023-05-02T08:10:43;98320.91;;;21.40;41.31
39487;BME280;25173;50.430;18.926;2023-05-02T08:13:45;98319.75;;;21.41;41.28
39487;BME280;25173;50.430;18.926;2023-05-02T08:16:49;98317.44;;;21.43;41.36
39487;BME280;25173;50.430;18.926;2023-05-02T08:19:49;98324.03;;;21.50;41.42
39487;BME280;25173;50.430;18.926;2023-05-02T08:22:50;98325.81;;;21.55;41.22
39487;BME280;25173;50.430;18.926;2023-05-02T08:25:54;98323.03;;;21.55;41.63
39487;BME280;25173;50.430;18.926;2023-05-02T08:28:59;98318.97;;;21.52;41.44
39487;BME280;25173;50.430;18.926;2023-05-02T08:32:00;98321.66;;;21.49;41.34
39487;BME280;25173;50.430;18.926;2023-05-02T08:35:01;98323.19;;;21.38;41.59
39487;BME280;25173;50.430;18.926;2023-05-02T08:38:05;98325.63;;;21.39;41.40
39487;BME280;25173;50.430;18.926;2023-05-02T08:41:10;98340.31;;;21.40;41.94
39487;BME280;25173;50.430;18.926;2023-05-02T08:44:11;98334.31;;;21.50;41.94
39487;BME280;25173;50.430;18.926;2023-05-02T08:47:13;98336.28;;;21.49;41.32
39487;BME280;25173;50.430;18.926;2023-05-02T08:50:16;98337.06;;;21.38;41.69
39487;BME280;25173;50.430;18.926;2023-05-02T08:53:22;98343.19;;;21.43;42.33
39487;BME280;25173;50.430;18.926;2023-05-02T08:56:27;98341.03;;;21.49;41.79
39487;BME280;25173;50.430;18.926;2023-05-02T08:59:29;98336.84;;;21.43;42.03
39487;BME280;25173;50.430;18.926;2023-05-02T09:02:47;98327.38;;;21.44;42.35
39487;BME280;25173;50.430;18.926;2023-05-02T09:05:53;98331.28;;;21.43;42.35
39487;BME280;25173;50.430;18.926;2023-05-02T09:08:59;98335.66;;;21.32;42.02
39487;BME280;25173;50.430;18.926;2023-05-02T09:12:00;98339.06;;;21.16;41.95
39487;BME280;25173;50.430;18.926;2023-05-02T09:15:15;98346.38;;;21.12;42.22
39487;BME280;25173;50.430;18.926;2023-05-02T09:18:19;98340.16;;;21.15;41.96
39487;BME280;25173;50.430;18.926;2023-05-02T09:21:25;98347.66;;;21.15;42.49
39487;BME280;25173;50.430;18.926;2023-05-02T09:24:26;98345.22;;;21.13;42.50
39487;BME280;25173;50.430;18.926;2023-05-02T09:27:27;98355.78;;;21.20;42.26
39487;BME280;25173;50.430;18.926;2023-05-02T09:30:28;98358.94;;;21.10;42.79
39487;BME280;25173;50.430;18.926;2023-05-02T09:33:29;98355.69;;;21.08;42.68
39487;BME280;25173;50.430;18.926;2023-05-02T09:36:38;98356.03;;;21.06;43.21
39487;BME280;25173;50.430;18.926;2023-05-02T09:39:39;98360.06;;;21.17;43.20
39487;BME280;25173;50.430;18.926;2023-05-02T09:42:39;98365.91;;;21.37;42.93
39487;BME280;25173;50.430;18.926;2023-05-02T09:45:40;98376.59;;;21.47;43.25
39487;BME280;25173;50.430;18.926;2023-05-02T09:49:07;98376.00;;;21.74;42.57
39487;BME280;25173;50.430;18.926;2023-05-02T09:55:19;98374.50;;;22.22;41.82
39487;BME280;25173;50.430;18.926;2023-05-02T09:58:22;98371.16;;;22.40;41.36
39487;BME280;25173;50.430;18.926;2023-05-02T10:01:23;98380.97;;;22.26;41.41
39487;BME280;25173;50.430;18.926;2023-05-02T10:04:24;98381.34;;;22.36;41.57
39487;BME280;25173;50.430;18.926;2023-05-02T10:07:25;98385.84;;;22.29;41.22
39487;BME280;25173;50.430;18.926;2023-05-02T10:10:27;98374.75;;;22.29;41.99
39487;BME280;25173;50.430;18.926;2023-05-02T10:13:29;98388.75;;;22.44;41.70
39487;BME280;25173;50.430;18.926;2023-05-02T10:16:33;98405.28;;;22.53;41.13
39487;BME280;25173;50.430;18.926;2023-05-02T10:19:53;98391.63;;;22.36;41.23
39487;BME280;25173;50.430;18.926;2023-05-02T10:22:58;98394.97;;;22.41;41.60
39487;BME280;25173;50.430;18.926;2023-05-02T10:25:59;98409.44;;;22.47;41.28
39487;BME280;25173;50.430;18.926;2023-05-02T10:29:01;98396.84;;;22.50;41.35
39487;BME280;25173;50.430;18.926;2023-05-02T10:32:02;98401.34;;;22.66;41.12
39487;BME280;25173;50.430;18.926;2023-05-02T10:35:05;98401.38;;;22.78;41.19
39487;BME280;25173;50.430;18.926;2023-05-02T10:38:06;98405.53;;;22.84;41.01
39487;BME280;25173;50.430;18.926;2023-05-02T10:41:16;98404.38;;;22.86;40.54
39487;BME280;25173;50.430;18.926;2023-05-02T10:44:35;98401.25;;;22.87;40.78
39487;BME280;25173;50.430;18.926;2023-05-02T10:47:36;98407.38;;;22.93;40.48
39487;BME280;25173;50.430;18.926;2023-05-02T10:50:51;98409.94;;;22.86;40.81
39487;BME280;25173;50.430;18.926;2023-05-02T10:53:52;98411.75;;;22.69;40.82
39487;BME280;25173;50.430;18.926;2023-05-02T11:00:25;98413.13;;;22.39;40.83
39487;BME280;25173;50.430;18.926;2023-05-02T11:04:07;98410.81;;;22.29;41.37
39487;BME280;25173;50.430;18.926;2023-05-02T11:13:49;98417.53;;;22.28;41.79
39487;BME280;25173;50.430;18.926;2023-05-02T11:23:18;98425.31;;;22.59;41.19
39487;BME280;25173;50.430;18.926;2023-05-02T11:26:22;98430.72;;;22.43;41.25
39487;BME280;25173;50.430;18.926;2023-05-02T11:29:50;98446.00;;;22.37;41.10
39487;BME280;25173;50.430;18.926;2023-05-02T11:35:52;98431.91;;;22.09;41.47
39487;BME280;25173;50.430;18.926;2023-05-02T11:38:53;98431.25;;;22.12;41.74
39487;BME280;25173;50.430;18.926;2023-05-02T11:41:54;98431.41;;;22.28;41.55
39487;BME280;25173;50.430;18.926;2023-05-02T11:44:56;98430.00;;;22.34;41.37
39487;BME280;25173;50.430;18.926;2023-05-02T11:47:57;98436.38;;;22.34;41.29
39487;BME280;25173;50.430;18.926;2023-05-02T11:50:59;98436.97;;;22.40;41.88
39487;BME280;25173;50.430;18.926;2023-05-02T11:54:04;98442.97;;;22.54;42.05
39487;BME280;25173;50.430;18.926;2023-05-02T11:57:07;98466.72;;;22.52;41.85
39487;BME280;25173;50.430;18.926;2023-05-02T12:00:08;98449.69;;;22.41;42.32
39487;BME280;25173;50.430;18.926;2023-05-02T12:03:27;98445.28;;;22.28;42.04
39487;BME280;25173;50.430;18.926;2023-05-02T12:06:29;98458.97;;;22.00;42.51
39487;BME280;25173;50.430;18.926;2023-05-02T12:09:31;98443.22;;;21.71;42.63
39487;BME280;25173;50.430;18.926;2023-05-02T12:12:31;98463.59;;;21.54;42.93
39487;BME280;25173;50.430;18.926;2023-05-02T12:15:32;98487.19;;;21.40;43.15
39487;BME280;25173;50.430;18.926;2023-05-02T12:18:33;98462.63;;;21.29;43.75
39487;BME280;25173;50.430;18.926;2023-05-02T12:21:34;98463.50;;;21.21;43.67
39487;BME280;25173;50.430;18.926;2023-05-02T12:24:35;98467.03;;;21.01;43.57
39487;BME280;25173;50.430;18.926;2023-05-02T12:27:36;98467.41;;;20.91;43.53
39487;BME280;25173;50.430;18.926;2023-05-02T12:30:38;98466.66;;;20.82;43.54
39487;BME280;25173;50.430;18.926;2023-05-02T12:33:42;98469.88;;;20.84;43.94
39487;BME280;25173;50.430;18.926;2023-05-02T12:36:43;98480.53;;;20.73;43.80
39487;BME280;25173;50.430;18.926;2023-05-02T12:39:44;98478.78;;;20.60;43.77
39487;BME280;25173;50.430;18.926;2023-05-02T12:43:01;98468.09;;;20.50;44.25
39487;BME280;25173;50.430;18.926;2023-05-02T12:46:12;98474.97;;;20.44;44.16
39487;BME280;25173;50.430;18.926;2023-05-02T12:49:13;98480.84;;;20.34;43.92
39487;BME280;25173;50.430;18.926;2023-05-02T12:52:16;98485.38;;;20.38;43.90
39487;BME280;25173;50.430;18.926;2023-05-02T12:55:24;98480.63;;;20.47;43.58
39487;BME280;25173;50.430;18.926;2023-05-02T12:58:37;98483.34;;;20.65;43.08
39487;BME280;25173;50.430;18.926;2023-05-02T13:01:39;98478.91;;;20.72;42.94
39487;BME280;25173;50.430;18.926;2023-05-02T13:04:40;98469.34;;;20.90;42.95
39487;BME280;25173;50.430;18.926;2023-05-02T13:07:41;98461.41;;;20.89;42.98
39487;BME280;25173;50.430;18.926;2023-05-02T13:10:42;98482.38;;;20.90;43.28
39487;BME280;25173;50.430;18.926;2023-05-02T13:13:43;98477.34;;;20.92;43.37
39487;BME280;25173;50.430;18.926;2023-05-02T13:16:44;98483.84;;;20.96;43.01
39487;BME280;25173;50.430;18.926;2023-05-02T13:19:44;98479.00;;;20.84;43.06
39487;BME280;25173;50.430;18.926;2023-05-02T13:22:45;98481.50;;;20.69;42.42
39487;BME280;25173;50.430;18.926;2023-05-02T13:25:46;98474.41;;;20.59;41.94
39487;BME280;25173;50.430;18.926;2023-05-02T13:28:46;98482.78;;;20.33;40.83
39487;BME280;25173;50.430;18.926;2023-05-02T13:31:47;98483.97;;;20.15;39.70
39487;BME280;25173;50.430;18.926;2023-05-02T13:34:48;98479.75;;;20.00;39.27
39487;BME280;25173;50.430;18.926;2023-05-02T13:37:50;98480.72;;;19.96;39.16
39487;BME280;25173;50.430;18.926;2023-05-02T13:40:50;98483.16;;;20.06;39.51
39487;BME280;25173;50.430;18.926;2023-05-02T13:43:51;98477.41;;;20.28;39.40
39487;BME280;25173;50.430;18.926;2023-05-02T13:46:53;98485.03;;;20.48;38.85
39487;BME280;25173;50.430;18.926;2023-05-02T13:49:53;98479.94;;;20.59;38.72
39487;BME280;25173;50.430;18.926;2023-05-02T13:52:55;98495.03;;;20.70;38.52
39487;BME280;25173;50.430;18.926;2023-05-02T13:55:56;98486.41;;;20.72;38.30
39487;BME280;25173;50.430;18.926;2023-05-02T13:58:56;98491.13;;;20.71;38.54
39487;BME280;25173;50.430;18.926;2023-05-02T14:01:57;98487.84;;;20.78;38.35
39487;BME280;25173;50.430;18.926;2023-05-02T14:04:58;98488.81;;;20.82;37.98
39487;BME280;25173;50.430;18.926;2023-05-02T14:08:02;98489.47;;;20.79;37.95
39487;BME280;25173;50.430;18.926;2023-05-02T14:11:02;98484.28;;;20.69;38.07
39487;BME280;25173;50.430;18.926;2023-05-02T14:14:03;98484.53;;;20.84;38.06
39487;BME280;25173;50.430;18.926;2023-05-02T14:17:03;98494.72;;;21.01;38.20
39487;BME280;25173;50.430;18.926;2023-05-02T14:20:05;98491.78;;;20.98;38.00
39487;BME280;25173;50.430;18.926;2023-05-02T14:23:06;98494.69;;;21.10;37.91
39487;BME280;25173;50.430;18.926;2023-05-02T14:26:07;98504.56;;;21.19;37.86
39487;BME280;25173;50.430;18.926;2023-05-02T14:29:08;98500.06;;;21.06;37.69
39487;BME280;25173;50.430;18.926;2023-05-02T14:32:08;98502.06;;;20.97;37.75
39487;BME280;25173;50.430;18.926;2023-05-02T14:35:09;98485.31;;;20.93;38.33
39487;BME280;25173;50.430;18.926;2023-05-02T14:38:10;98489.47;;;21.08;38.20
39487;BME280;25173;50.430;18.926;2023-05-02T14:41:11;98494.53;;;21.06;38.32
39487;BME280;25173;50.430;18.926;2023-05-02T14:44:11;98507.91;;;21.04;38.51
39487;BME280;25173;50.430;18.926;2023-05-02T14:47:12;98497.81;;;21.00;38.77
39487;BME280;25173;50.430;18.926;2023-05-02T14:50:12;98499.34;;;20.88;38.53
39487;BME280;25173;50.430;18.926;2023-05-02T14:53:13;98513.34;;;20.92;39.25
39487;BME280;25173;50.430;18.926;2023-05-02T14:56:14;98513.00;;;20.93;39.23
39487;BME280;25173;50.430;18.926;2023-05-02T14:59:16;98524.94;;;20.85;39.23
39487;BME280;25173;50.430;18.926;2023-05-02T15:02:16;98523.84;;;20.69;39.57
39487;BME280;25173;50.430;18.926;2023-05-02T15:05:17;98531.88;;;20.53;39.67
39487;BME280;25173;50.430;18.926;2023-05-02T15:08:18;98522.63;;;20.32;39.70
39487;BME280;25173;50.430;18.926;2023-05-02T15:11:18;98539.09;;;20.20;40.35
39487;BME280;25173;50.430;18.926;2023-05-02T15:14:19;98548.41;;;20.07;40.53
39487;BME280;25173;50.430;18.926;2023-05-02T15:17:20;98552.59;;;19.78;39.62
39487;BME280;25173;50.430;18.926;2023-05-02T15:20:21;98556.69;;;19.55;39.87
39487;BME280;25173;50.430;18.926;2023-05-02T15:23:21;98559.66;;;19.28;39.86
39487;BME280;25173;50.430;18.926;2023-05-02T15:26:22;98559.13;;;19.09;40.14
39487;BME280;25173;50.430;18.926;2023-05-02T15:29:23;98566.41;;;18.96;40.17
39487;BME280;25173;50.430;18.926;2023-05-02T15:32:24;98578.84;;;18.85;41.59
39487;BME280;25173;50.430;18.926;2023-05-02T15:35:25;98579.94;;;18.53;42.13
39487;BME280;25173;50.430;18.926;2023-05-02T15:38:26;98581.50;;;18.14;42.46
39487;BME280;25173;50.430;18.926;2023-05-02T15:41:27;98588.41;;;17.90;42.55
39487;BME280;25173;50.430;18.926;2023-05-02T15:44:27;98599.50;;;17.76;42.31
39487;BME280;25173;50.430;18.926;2023-05-02T15:47:28;98599.69;;;17.66;42.49
39487;BME280;25173;50.430;18.926;2023-05-02T15:50:28;98595.31;;;17.65;42.65
39487;BME280;25173;50.430;18.926;2023-05-02T15:53:29;98593.88;;;17.67;42.85
39487;BME280;25173;50.430;18.926;2023-05-02T15:56:30;98590.19;;;17.72;43.19
39487;BME280;25173;50.430;18.926;2023-05-02T15:59:30;98597.03;;;17.74;43.55
39487;BME280;25173;50.430;18.926;2023-05-02T16:02:31;98603.78;;;17.68;44.11
39487;BME280;25173;50.430;18.926;2023-05-02T16:05:34;98608.91;;;17.61;43.93
39487;BME280;25173;50.430;18.926;2023-05-02T16:08:34;98610.22;;;17.50;44.04
39487;BME280;25173;50.430;18.926;2023-05-02T16:11:35;98604.59;;;17.41;44.02
39487;BME280;25173;50.430;18.926;2023-05-02T16:14:36;98606.56;;;17.41;44.59
39487;BME280;25173;50.430;18.926;2023-05-02T16:17:36;98617.25;;;17.42;44.61
39487;BME280;25173;50.430;18.926;2023-05-02T16:20:37;98616.22;;;17.52;44.36
39487;BME280;25173;50.430;18.926;2023-05-02T16:23:37;98616.88;;;17.63;44.27
39487;BME280;25173;50.430;18.926;2023-05-02T16:26:38;98619.78;;;17.80;44.17
39487;BME280;25173;50.430;18.926;2023-05-02T16:29:39;98625.56;;;17.92;43.67
39487;BME280;25173;50.430;18.926;2023-05-02T16:32:40;98624.94;;;17.95;43.64
39487;BME280;25173;50.430;18.926;2023-05-02T16:35:40;98614.28;;;18.02;43.54
39487;BME280;25173;50.430;18.926;2023-05-02T16:38:41;98604.28;;;18.06;43.75